Time;durP1;ratioP1;P1;durP2;ratioP2;P2;SDS_P1;SDS_P2;PMS_P1;PMS_P2;Temp;Humidity;BMP_temperature;BMP_pressure;BME280_temperature;BME280_humidity;BME280_pressure;Samples;Min_cycle;Max_cycle;Signal;HPM_P1;HPM_P2
2022/03/16 00:00:21;;;;;;;0.00;0.00;;;;;;;11.40;63.03;100990.38;7364999;19;20057;-63
2022/03/16 00:02:48;;;;;;;0.00;0.00;;;;;;;11.41;63.12;100986.00;7353304;19;20064;-63
2022/03/16 00:05:14;;;;;;;0.00;0.00;;;;;;;11.39;63.82;100993.00;7356865;19;20026;-63
2022/03/16 00:07:41;;;;;;;0.00;0.00;;;;;;;11.39;64.51;100993.00;7371422;19;20027;-63
2022/03/16 00:10:08;;;;;;;0.00;0.00;;;;;;;11.37;65.30;100997.41;7368503;19;20010;-63
2022/03/16 00:12:34;;;;;;;0.00;0.00;;;;;;;11.37;64.38;101005.25;7373452;19;20018;-63
2022/03/16 00:14:59;;;;;;;0.00;0.00;;;;;;;11.32;64.64;100999.25;7362300;19;20021;-63
2022/03/16 00:17:25;;;;;;;0.00;0.00;;;;;;;11.28;65.13;101000.22;7361660;19;20015;-63
2022/03/16 00:19:51;;;;;;;0.00;0.00;;;;;;;11.23;66.00;101002.06;7363474;19;20021;-63
2022/03/16 00:22:16;;;;;;;0.00;0.00;;;;;;;11.17;66.42;100993.44;7360919;19;20006;-63
2022/03/16 00:24:42;;;;;;;0.00;0.00;;;;;;;11.10;66.40;100999.72;7362884;19;20010;-63
2022/03/16 00:27:07;;;;;;;0.05;0.05;;;;;;;11.08;65.81;101001.47;7361196;19;20352;-63
2022/03/16 00:29:38;;;;;;;0.00;0.00;;;;;;;11.03;66.42;100999.84;2046879;19;10021889;-63
2022/03/16 00:32:04;;;;;;;0.00;0.00;;;;;;;10.98;66.72;101005.16;6648450;19;10000507;-63
2022/03/16 00:34:31;;;;;;;0.00;0.00;;;;;;;10.92;66.50;101002.69;7353450;19;20014;-63
2022/03/16 00:36:56;;;;;;;0.08;0.08;;;;;;;10.89;66.68;101003.56;7359370;19;20085;-63
2022/03/16 00:39:22;;;;;;;0.00;0.00;;;;;;;10.85;66.47;101006.31;7359815;19;20021;-63
2022/03/16 00:41:47;;;;;;;0.00;0.00;;;;;;;10.82;66.21;101017.66;7362384;19;20709;-63
2022/03/16 00:44:13;;;;;;;0.00;0.00;;;;;;;10.77;65.88;101018.63;7358520;19;20019;-62
2022/03/16 00:46:38;;;;;;;0.00;0.00;;;;;;;10.75;65.75;101025.66;7370881;19;20039;-63
2022/03/16 00:49:04;;;;;;;0.00;0.00;;;;;;;10.71;65.64;101018.75;7368350;19;20023;-63
2022/03/16 00:51:29;;;;;;;0.00;0.00;;;;;;;10.61;65.48;101007.59;7369827;19;20014;-63
2022/03/16 00:53:55;;;;;;;0.00;0.00;;;;;;;10.61;65.23;101018.91;7370034;19;20021;-63
2022/03/16 00:56:21;;;;;;;0.05;0.05;;;;;;;10.47;65.97;101005.22;7367023;19;20006;-63
2022/03/16 00:58:46;;;;;;;0.08;0.08;;;;;;;10.58;65.60;101029.41;7369694;19;20010;-63
2022/03/16 01:01:12;;;;;;;0.00;0.00;;;;;;;10.54;65.72;101027.75;7361100;19;20007;-63
2022/03/16 01:03:41;;;;;;;0.00;0.00;;;;;;;10.53;65.82;101036.47;7359494;19;20020;-63
2022/03/16 01:06:15;;;;;;;0.00;0.00;;;;;;;10.38;65.48;101015.81;7355524;19;20006;-63
2022/03/16 01:08:44;;;;;;;0.00;0.00;;;;;;;10.47;66.05;101033.09;7369175;19;20007;-63
2022/03/16 01:11:11;;;;;;;0.00;0.00;;;;;;;10.45;65.86;101037.50;7358081;19;20549;-63
2022/03/16 01:13:37;;;;;;;0.00;0.00;;;;;;;10.43;65.73;101034.88;7356974;19;20073;-64
2022/03/16 01:16:03;;;;;;;0.00;0.00;;;;;;;10.41;65.94;101034.06;7357946;19;20030;-64
2022/03/16 01:18:28;;;;;;;0.00;0.00;;;;;;;10.41;65.76;101046.25;7353013;19;20013;-63
2022/03/16 01:20:54;;;;;;;0.00;0.00;;;;;;;10.37;66.25;101042.81;7360098;19;20335;-64
2022/03/16 01:23:19;;;;;;;0.10;0.10;;;;;;;10.36;65.97;101054.16;7356905;19;20020;-63
2022/03/16 01:25:45;;;;;;;0.00;0.00;;;;;;;10.34;65.86;101051.59;7359241;19;20015;-63
2022/03/16 01:28:10;;;;;;;0.00;0.00;;;;;;;10.32;66.12;101049.88;7357655;19;20035;-64
2022/03/16 01:30:36;;;;;;;0.00;0.00;;;;;;;10.31;66.16;101058.59;7360947;19;20731;-62
2022/03/16 01:33:01;;;;;;;0.00;0.00;;;;;;;10.29;65.90;101055.13;7356821;19;20063;-63
2022/03/16 01:35:27;;;;;;;0.10;0.10;;;;;;;10.27;65.86;101060.38;7358241;19;20010;-63
2022/03/16 01:37:52;;;;;;;0.00;0.00;;;;;;;10.26;66.29;101063.88;7359758;19;20010;-63
2022/03/16 01:40:18;;;;;;;0.00;0.00;;;;;;;10.09;66.00;101045.84;7355648;19;20017;-63
2022/03/16 01:42:43;;;;;;;0.00;0.00;;;;;;;10.19;66.30;101061.34;7355158;19;20025;-63
2022/03/16 01:45:09;;;;;;;0.00;0.00;;;;;;;10.23;66.13;101070.84;7358233;19;20010;-63
2022/03/16 01:47:35;;;;;;;0.00;0.00;;;;;;;10.22;66.23;101072.59;7353740;19;20003;-63
2022/03/16 01:50:00;;;;;;;0.05;0.05;;;;;;;10.19;66.46;101071.78;7364009;19;20017;-64
2022/03/16 01:52:28;;;;;;;0.00;0.00;;;;;;;10.20;66.27;101074.38;7360040;19;20027;-63
2022/03/16 01:54:54;;;;;;;;;;;;;;;10.23;64.80;101078.69;7361033;19;20002;-63
2022/03/16 01:57:20;;;;;;;0.00;0.00;;;;;;;10.19;65.96;101077.91;7356629;19;19917;-63
2022/03/16 01:59:46;;;;;;;0.00;0.00;;;;;;;10.19;66.56;101077.00;7356010;19;20053;-63
2022/03/16 02:02:12;;;;;;;0.00;0.00;;;;;;;10.17;66.26;101076.19;7350730;19;20003;-63
2022/03/16 02:04:38;;;;;;;0.00;0.00;;;;;;;10.16;66.48;101074.47;7358745;19;20010;-63
2022/03/16 02:07:05;;;;;;;0.00;0.00;;;;;;;10.17;66.82;101081.41;7351520;19;20705;-63
2022/03/16 02:09:31;;;;;;;0.00;0.00;;;;;;;10.14;66.61;101085.78;7356021;19;20015;-63
2022/03/16 02:11:57;;;;;;;0.10;0.10;;;;;;;10.14;66.40;101087.53;7358205;19;20010;-63
2022/03/16 02:14:23;;;;;;;0.00;0.00;;;;;;;10.11;66.60;101098.88;7360011;19;20547;-64
2022/03/16 02:16:49;;;;;;;0.00;0.00;;;;;;;10.10;66.58;101094.53;7357260;19;20853;-63
2022/03/16 02:19:15;;;;;;;0.00;0.00;;;;;;;10.03;66.59;101087.66;7358491;19;20014;-63
2022/03/16 02:21:43;;;;;;;0.00;0.00;;;;;;;10.08;66.90;101096.28;7348476;19;20026;-63
2022/03/16 02:24:09;;;;;;;0.00;0.00;;;;;;;10.06;66.84;101098.06;7357080;19;20033;-62
2022/03/16 02:26:35;;;;;;;0.00;0.00;;;;;;;10.04;67.02;101089.41;7356630;19;20010;-63
2022/03/16 02:29:00;;;;;;;0.00;0.00;;;;;;;10.03;66.92;101092.88;7357082;19;20014;-63
2022/03/16 02:31:26;;;;;;;0.00;0.00;;;;;;;10.03;66.95;101092.88;7365353;19;20011;-63
2022/03/16 02:33:52;;;;;;;0.00;0.00;;;;;;;10.00;67.33;101077.28;7354472;19;20022;-63
2022/03/16 02:36:18;;;;;;;0.00;0.00;;;;;;;9.99;67.00;101079.94;7358281;19;20014;-63
2022/03/16 02:38:44;;;;;;;0.00;0.00;;;;;;;9.98;67.11;101076.44;7363294;19;20482;-64
2022/03/16 02:41:14;;;;;;;0.00;0.00;;;;;;;9.99;67.37;101079.94;5387760;19;10020735;-62
2022/03/16 02:43:39;;;;;;;0.00;0.00;;;;;;;9.99;67.03;101096.44;3243650;19;10002167;-63
2022/03/16 02:46:05;;;;;;;0.03;0.03;;;;;;;9.96;66.89;101090.41;7354345;19;20014;-63
2022/03/16 02:48:31;;;;;;;0.00;0.00;;;;;;;9.98;67.38;101099.06;7358899;19;20034;-63
2022/03/16 02:50:56;;;;;;;0.00;0.00;;;;;;;9.98;67.44;101102.53;7358731;19;20018;-64
2022/03/16 02:53:22;;;;;;;0.00;0.00;;;;;;;9.96;67.33;101104.31;7359539;19;20014;-63
2022/03/16 02:55:48;;;;;;;0.10;0.10;;;;;;;9.97;67.53;101108.63;7351452;19;20018;-63
2022/03/16 02:58:15;;;;;;;0.00;0.00;;;;;;;9.95;66.98;101107.81;7360078;19;20010;-63
2022/03/16 03:00:41;;;;;;;0.00;0.00;;;;;;;9.86;66.95;101094.88;7354672;19;20035;-63
2022/03/16 03:03:07;;;;;;;0.10;0.10;;;;;;;9.95;66.63;101120.84;7360019;19;20019;-63
2022/03/16 03:05:32;;;;;;;0.08;0.08;;;;;;;9.92;66.78;101115.66;7360822;19;20031;-63
2022/03/16 03:07:59;;;;;;;0.00;0.00;;;;;;;9.88;66.72;101119.19;7341148;19;20027;-63
2022/03/16 03:10:24;;;;;;;0.00;0.00;;;;;;;9.87;66.83;101114.84;7358798;19;20011;-63
2022/03/16 03:12:50;;;;;;;0.00;0.00;;;;;;;9.84;67.30;101117.53;7357850;19;20002;-64
2022/03/16 03:15:15;;;;;;;0.00;0.00;;;;;;;9.80;67.16;101113.22;7359356;19;20014;-63
2022/03/16 03:17:42;;;;;;;0.00;0.00;;;;;;;9.78;67.33;101117.56;7356809;19;20078;-64
2022/03/16 03:20:08;;;;;;;0.00;0.00;;;;;;;9.76;67.27;101116.75;7355516;19;20011;-63
2022/03/16 03:22:34;;;;;;;0.00;0.00;;;;;;;9.75;67.20;101117.63;7359278;19;20054;-63
2022/03/16 03:25:01;;;;;;;0.00;0.00;;;;;;;9.72;67.68;101113.31;7354929;19;20671;-63
2022/03/16 03:27:26;;;;;;;0.00;0.00;;;;;;;9.70;67.60;101109.00;7365169;19;20066;-63
2022/03/16 03:29:52;;;;;;;0.00;0.00;;;;;;;9.69;67.22;101112.50;7356087;19;20074;-63
2022/03/16 03:32:18;;;;;;;0.00;0.00;;;;;;;9.66;67.46;101118.59;7353726;19;20074;-63
2022/03/16 03:34:46;;;;;;;0.00;0.00;;;;;;;9.58;67.25;101105.69;7358669;19;20288;-63
2022/03/16 03:37:14;;;;;;;0.00;0.00;;;;;;;9.64;67.40;101111.69;7358471;19;20356;-63
2022/03/16 03:39:40;;;;;;;0.00;0.00;;;;;;;9.47;67.25;101086.66;7348833;19;20014;-63
2022/03/16 03:42:06;;;;;;;0.00;0.00;;;;;;;9.60;67.82;101109.13;7360810;19;21578;-63
2022/03/16 03:44:32;;;;;;;0.00;0.00;;;;;;;9.61;67.73;101115.19;7348127;19;20010;-63
2022/03/16 03:46:57;;;;;;;0.00;0.00;;;;;;;9.58;67.46;101118.72;7357982;19;20471;-63
2022/03/16 03:49:23;;;;;;;0.00;0.00;;;;;;;9.57;67.98;101124.78;7355951;19;20010;-64
2022/03/16 03:51:48;;;;;;;0.00;0.00;;;;;;;9.56;67.71;101125.66;7353883;19;20014;-64
2022/03/16 03:54:14;;;;;;;0.00;0.00;;;;;;;9.55;67.62;101121.34;7354073;19;20042;-63
2022/03/16 03:56:39;;;;;;;0.00;0.00;;;;;;;9.55;67.63;101115.25;7359533;19;20039;-63
2022/03/16 03:59:05;;;;;;;0.00;0.00;;;;;;;9.51;67.74;101119.66;7349484;19;20118;-64
2022/03/16 04:01:30;;;;;;;0.10;0.10;;;;;;;9.45;67.88;101119.72;7354075;19;20030;-62
2022/03/16 04:03:56;;;;;;;0.00;0.00;;;;;;;9.42;68.23;101109.31;7353145;19;20778;-61
2022/03/16 04:06:21;;;;;;;0.00;0.00;;;;;;;9.47;68.00;101119.69;7341770;19;20018;-63
2022/03/16 04:08:47;;;;;;;0.00;0.00;;;;;;;9.45;68.06;101124.94;7361173;19;20011;-63
2022/03/16 04:11:12;;;;;;;0.00;0.00;;;;;;;9.44;68.06;101123.22;7356557;19;20043;-63
2022/03/16 04:13:38;;;;;;;0.00;0.00;;;;;;;9.35;67.81;101112.88;7351119;19;20016;-63
2022/03/16 04:16:03;;;;;;;0.00;0.00;;;;;;;9.43;67.90;101138.84;7360692;19;20003;-63
2022/03/16 04:18:29;;;;;;;0.00;0.00;;;;;;;9.42;68.15;101140.59;7361881;19;20019;-63
2022/03/16 04:20:54;;;;;;;0.10;0.10;;;;;;;9.40;68.00;101131.94;7361752;19;20018;-63
2022/03/16 04:23:20;;;;;;;0.00;0.00;;;;;;;9.39;68.05;101130.22;7361599;19;20021;-64
2022/03/16 04:25:46;;;;;;;0.10;0.10;;;;;;;9.28;68.34;101112.09;7363266;19;20404;-63
2022/03/16 04:28:11;;;;;;;0.00;0.00;;;;;;;9.39;68.18;101130.22;7359486;19;20023;-63
2022/03/16 04:30:37;;;;;;;0.00;0.00;;;;;;;9.38;68.07;101133.72;7364262;19;20387;-63
2022/03/16 04:33:03;;;;;;;0.00;0.00;;;;;;;9.35;68.01;101129.38;7364487;19;20018;-63
2022/03/16 04:35:28;;;;;;;0.00;0.00;;;;;;;9.36;68.59;101140.66;7368938;19;20022;-64
2022/03/16 04:37:54;;;;;;;0.00;0.00;;;;;;;9.35;68.26;101146.78;7357434;19;20034;-63
2022/03/16 04:40:19;;;;;;;0.00;0.00;;;;;;;9.30;68.24;101141.59;7362429;19;20033;-63
2022/03/16 04:42:57;;;;;;;0.01;0.01;;;;;;;9.36;68.29;101135.47;1650236;19;10022488;-63
2022/03/16 04:45:22;;;;;;;;;;;;;;;9.37;66.53;101137.19;7360673;19;20991;-63
2022/03/16 04:47:47;;;;;;;0.00;0.00;;;;;;;9.22;68.04;101132.97;7369400;19;20358;-63
2022/03/16 04:50:13;;;;;;;0.00;0.00;;;;;;;9.31;68.46;101151.13;7359166;19;20010;-63
2022/03/16 04:52:43;;;;;;;0.00;0.00;;;;;;;9.31;67.80;101148.53;7371843;19;20011;-63
2022/03/16 04:55:10;;;;;;;0.00;0.00;;;;;;;9.23;68.12;101145.16;7366362;19;20018;-63
2022/03/16 04:57:35;;;;;;;0.03;0.03;;;;;;;9.27;68.47;101148.56;7370420;19;20015;-63
2022/03/16 05:00:00;;;;;;;0.00;0.00;;;;;;;9.25;68.31;101159.03;7359735;19;20027;-63
2022/03/16 05:02:26;;;;;;;0.00;0.00;;;;;;;9.25;68.40;101163.38;7366354;19;20018;-64
2022/03/16 05:04:52;;;;;;;0.00;0.00;;;;;;;9.24;68.47;101162.50;7364856;19;20014;-63
2022/03/16 05:07:17;;;;;;;0.05;0.05;;;;;;;9.12;68.58;101146.13;7357321;19;20017;-63
2022/03/16 05:09:43;;;;;;;0.08;0.08;;;;;;;9.25;68.74;101168.59;7365495;19;20003;-63
2022/03/16 05:12:09;;;;;;;0.00;0.00;;;;;;;9.23;68.53;101176.44;7370312;19;20010;-63
2022/03/16 05:14:34;;;;;;;0.10;0.10;;;;;;;9.26;68.37;101180.72;7360395;19;20002;-63
2022/03/16 05:17:00;;;;;;;0.00;0.00;;;;;;;9.26;68.59;101185.94;7358965;19;20022;-63
2022/03/16 05:19:26;;;;;;;0.00;0.00;;;;;;;9.25;68.46;101187.69;7355823;19;20063;-63
2022/03/16 05:21:51;;;;;;;0.00;0.00;;;;;;;9.24;68.42;101185.97;7358635;19;20482;-63
2022/03/16 05:24:20;;;;;;;0.00;0.00;;;;;;;9.26;68.70;101191.16;7357676;19;20010;-64
2022/03/16 05:26:45;;;;;;;0.00;0.00;;;;;;;9.26;68.25;101196.38;7357286;19;20833;-63
2022/03/16 05:29:11;;;;;;;0.00;0.00;;;;;;;9.25;68.71;101192.03;7363222;19;20010;-63
2022/03/16 05:31:36;;;;;;;0.00;0.00;;;;;;;9.25;68.21;101194.66;7350524;19;20029;-63
2022/03/16 05:34:02;;;;;;;0.00;0.00;;;;;;;9.24;68.42;101191.19;7358638;19;20842;-63
2022/03/16 05:36:27;;;;;;;0.00;0.00;;;;;;;9.24;68.62;101198.13;7354371;19;20007;-63
2022/03/16 05:38:53;;;;;;;0.00;0.00;;;;;;;9.24;69.00;101203.34;7355051;19;20066;-63
2022/03/16 05:41:18;;;;;;;0.00;0.00;;;;;;;9.24;68.76;101198.13;7358478;19;20505;-63
2022/03/16 05:43:44;;;;;;;0.10;0.10;;;;;;;9.21;68.61;101199.00;7354178;19;20022;-64
2022/03/16 05:46:09;;;;;;;0.00;0.00;;;;;;;9.23;68.15;101202.50;7360706;19;20030;-63
2022/03/16 05:48:34;;;;;;;0.03;0.03;;;;;;;9.23;67.84;101212.91;7349553;19;20010;-63
2022/03/16 05:51:00;;;;;;;0.00;0.00;;;;;;;9.21;68.26;101205.97;7368061;19;20006;-63
2022/03/16 05:53:25;;;;;;;0.00;0.00;;;;;;;9.20;68.00;101218.13;7363000;19;20022;-63
2022/03/16 05:55:51;;;;;;;0.00;0.00;;;;;;;9.17;68.62;101214.69;7358423;19;20011;-64
2022/03/16 05:58:16;;;;;;;0.00;0.00;;;;;;;9.06;68.23;101200.00;7370265;19;20018;-63
2022/03/16 06:00:42;;;;;;;0.00;0.00;;;;;;;9.15;68.22;101213.84;7361224;19;20043;-63
2022/03/16 06:03:08;;;;;;;0.00;0.00;;;;;;;9.13;68.25;101213.00;7362674;19;20018;-62
2022/03/16 06:05:33;;;;;;;0.00;0.00;;;;;;;9.09;68.37;101210.41;7358067;19;20035;-63
2022/03/16 06:08:00;;;;;;;0.00;0.00;;;;;;;9.09;68.56;101210.41;7354574;19;20010;-63
2022/03/16 06:10:26;;;;;;;0.00;0.00;;;;;;;9.09;68.03;101210.41;7361213;19;20039;-63
2022/03/16 06:12:57;;;;;;;0.00;0.00;;;;;;;9.10;67.97;101232.97;7355720;19;20011;-63
2022/03/16 06:15:24;;;;;;;0.00;0.00;;;;;;;9.07;68.35;101237.34;7361792;19;20021;-63
2022/03/16 06:17:59;;;;;;;0.10;0.10;;;;;;;9.03;68.00;101226.09;7339528;19;20022;-63
2022/03/16 06:20:28;;;;;;;0.00;0.00;;;;;;;9.02;68.00;101228.69;7358206;19;20577;-63
2022/03/16 06:22:54;;;;;;;0.00;0.00;;;;;;;8.99;68.34;101227.00;7361427;19;20744;-62
2022/03/16 06:25:19;;;;;;;0.00;0.00;;;;;;;8.98;68.47;101227.88;7347927;19;20010;-63
2022/03/16 06:27:45;;;;;;;0.00;0.00;;;;;;;8.96;68.17;101240.03;7363017;19;20029;-63
2022/03/16 06:30:11;;;;;;;0.00;0.00;;;;;;;8.95;67.89;101238.31;7356208;19;20019;-63
2022/03/16 06:32:36;;;;;;;0.10;0.10;;;;;;;8.93;68.30;101240.06;7353449;19;20022;-64
2022/03/16 06:35:12;;;;;;;0.00;0.00;;;;;;;8.92;68.52;101243.56;7093853;19;10000634;-64
2022/03/16 06:37:38;;;;;;;0.00;0.00;;;;;;;8.90;68.17;101252.25;1717362;19;10001333;-64
2022/03/16 06:40:05;;;;;;;0.00;0.00;;;;;;;8.87;67.93;101249.66;7359053;19;20666;-64
2022/03/16 06:42:30;;;;;;;0.00;0.00;;;;;;;8.87;67.97;101260.97;7358677;19;20015;-64
2022/03/16 06:44:56;;;;;;;0.00;0.00;;;;;;;8.84;68.44;101261.84;7354984;19;20924;-63
2022/03/16 06:47:21;;;;;;;0.00;0.00;;;;;;;8.83;68.00;101273.13;7364389;19;20021;-63
2022/03/16 06:49:46;;;;;;;0.00;0.00;;;;;;;8.81;68.46;101271.41;7367055;19;20014;-63
2022/03/16 06:52:12;;;;;;;0.00;0.00;;;;;;;8.72;68.15;101266.28;7363766;19;20006;-62
2022/03/16 06:54:38;;;;;;;0.00;0.00;;;;;;;8.78;68.11;101276.63;7362540;19;20016;-62
2022/03/16 06:57:03;;;;;;;0.00;0.00;;;;;;;8.76;68.61;101289.66;7357801;19;20477;-63
2022/03/16 06:59:29;;;;;;;0.00;0.00;;;;;;;8.71;67.93;101285.34;7358971;19;20066;-63
2022/03/16 07:01:55;;;;;;;0.00;0.00;;;;;;;8.74;68.58;101285.34;7358178;19;20558;-63
2022/03/16 07:04:20;;;;;;;0.00;0.00;;;;;;;8.59;68.57;101265.47;7352228;19;21152;-62
2022/03/16 07:06:46;;;;;;;0.00;0.00;;;;;;;8.67;68.20;101289.72;7359077;19;20451;-63
2022/03/16 07:09:11;;;;;;;0.00;0.00;;;;;;;8.70;68.27;101297.50;7350185;19;20006;-63
2022/03/16 07:11:37;;;;;;;0.00;0.00;;;;;;;8.68;68.43;101295.78;7355092;19;20010;-63
2022/03/16 07:16:46;;;;;;;0.00;0.00;;;;;;;8.67;68.12;101317.47;7352799;19;20020;-63
2022/03/16 07:19:12;;;;;;;0.10;0.10;;;;;;;8.66;67.97;101313.16;7347443;19;20357;-63
2022/03/16 07:21:38;;;;;;;0.10;0.10;;;;;;;8.66;68.33;101310.53;7351411;19;20026;-63
2022/03/16 07:24:05;;;;;;;0.10;0.10;;;;;;;8.65;68.20;101312.28;7356113;19;20742;-63
2022/03/16 07:26:30;;;;;;;0.00;0.00;;;;;;;8.65;68.47;101306.22;7353938;19;20643;-63
2022/03/16 07:28:56;;;;;;;0.00;0.00;;;;;;;8.66;67.97;101294.91;7354800;19;20014;-63
2022/03/16 07:31:22;;;;;;;0.00;0.00;;;;;;;8.66;68.41;101284.50;7353866;19;20011;-63
2022/03/16 07:33:47;;;;;;;0.08;0.08;;;;;;;8.67;68.65;101283.63;7343738;19;20039;-63
2022/03/16 07:36:13;;;;;;;0.00;0.00;;;;;;;8.68;68.05;101301.88;7355683;19;20022;-63
2022/03/16 07:38:38;;;;;;;0.03;0.03;;;;;;;8.69;68.20;101315.75;7362818;19;20018;-63
2022/03/16 07:41:05;;;;;;;0.00;0.00;;;;;;;8.69;67.95;101319.22;7356714;19;20031;-63
2022/03/16 07:43:31;;;;;;;0.00;0.00;;;;;;;8.69;67.73;101333.97;7355637;19;20006;-63
2022/03/16 07:45:56;;;;;;;0.10;0.10;;;;;;;8.56;67.74;101320.13;7363245;19;20014;-63
2022/03/16 07:48:22;;;;;;;0.10;0.10;;;;;;;8.69;67.47;101339.19;7358491;19;20050;-63
2022/03/16 07:50:49;;;;;;;0.03;0.03;;;;;;;8.68;67.54;101337.47;7361122;19;20435;-63
2022/03/16 07:53:15;;;;;;;0.00;0.00;;;;;;;8.66;67.62;101339.19;7358866;19;20021;-63
2022/03/16 07:55:40;;;;;;;0.00;0.00;;;;;;;8.65;67.64;101347.88;7360976;19;20019;-63
2022/03/16 07:58:06;;;;;;;0.00;0.00;;;;;;;8.63;67.47;101355.69;7350892;19;20372;-63
2022/03/16 08:00:31;;;;;;;0.00;0.00;;;;;;;8.61;67.34;101354.81;7359016;19;20098;-63
2022/03/16 08:03:01;;;;;;;0.00;0.00;;;;;;;8.62;67.34;101363.50;7358529;19;20018;-63
2022/03/16 08:05:28;;;;;;;0.00;0.00;;;;;;;8.60;67.08;101355.69;7358955;19;20053;-63
2022/03/16 08:07:53;;;;;;;0.00;0.00;;;;;;;8.58;67.36;101350.50;7363462;19;20022;-63
2022/03/16 08:10:19;;;;;;;0.00;0.00;;;;;;;8.52;66.88;101347.94;7353850;19;20045;-63
2022/03/16 08:12:45;;;;;;;0.10;0.10;;;;;;;8.54;66.97;101356.59;7358356;19;20022;-63
2022/03/16 08:15:11;;;;;;;0.00;0.00;;;;;;;8.51;67.19;101348.78;7356808;19;20014;-63
2022/03/16 08:17:36;;;;;;;0.00;0.00;;;;;;;8.58;67.23;101358.31;7356502;19;20124;-63
2022/03/16 08:20:02;;;;;;;0.00;0.00;;;;;;;8.60;67.05;101357.44;7350675;19;20030;-63
2022/03/16 08:22:31;;;;;;;0.00;0.00;;;;;;;8.61;67.27;101366.97;7360945;19;20105;-63
2022/03/16 08:24:59;;;;;;;0.00;0.00;;;;;;;8.63;67.49;101370.44;7356779;19;20026;-63
2022/03/16 08:27:25;;;;;;;0.00;0.00;;;;;;;8.64;67.04;101377.38;7368611;19;20628;-62
2022/03/16 08:29:52;;;;;;;0.00;0.00;;;;;;;8.66;67.28;101380.84;7361135;19;20321;-63
2022/03/16 08:32:30;;;;;;;0.00;0.00;;;;;;;8.70;66.79;101387.78;3016779;19;10023448;-63
2022/03/16 08:34:55;;;;;;;0.00;0.00;;;;;;;8.64;67.22;101387.81;6029787;19;10001112;-63
2022/03/16 08:37:21;;;;;;;0.10;0.10;;;;;;;8.53;67.29;101365.28;7359109;19;21497;-63
2022/03/16 08:39:48;;;;;;;0.10;0.10;;;;;;;8.75;66.76;101401.63;7345607;19;20007;-63
2022/03/16 08:42:14;;;;;;;0.00;0.00;;;;;;;8.77;66.66;101411.19;7355440;19;20006;-63
2022/03/16 08:44:42;;;;;;;0.00;0.00;;;;;;;8.81;66.57;101412.03;7361368;19;20010;-63
2022/03/16 08:47:08;;;;;;;0.00;0.00;;;;;;;8.84;67.00;101410.28;7356718;19;20038;-63
2022/03/16 08:49:34;;;;;;;0.00;0.00;;;;;;;8.89;67.00;101423.28;7361668;19;20023;-63
2022/03/16 08:52:00;;;;;;;0.00;0.00;;;;;;;8.94;66.58;101416.31;7353497;19;20017;-62
2022/03/16 08:54:26;;;;;;;0.00;0.00;;;;;;;9.00;66.62;101411.06;7362534;19;20010;-63
2022/03/16 08:56:52;;;;;;;0.05;0.05;;;;;;;9.07;66.29;101420.59;7354863;19;20467;-63
2022/03/16 08:59:19;;;;;;;0.08;0.08;;;;;;;9.13;66.35;101429.28;7361248;19;20014;-63
2022/03/16 09:01:45;;;;;;;0.00;0.00;;;;;;;9.20;66.03;101430.97;7351353;19;20044;-63
2022/03/16 09:04:10;;;;;;;0.10;0.10;;;;;;;9.12;66.17;101409.28;7351522;19;20514;-63
2022/03/16 09:06:36;;;;;;;0.00;0.00;;;;;;;9.26;66.27;101430.91;7356637;19;20006;-63
2022/03/16 09:09:02;;;;;;;0.00;0.00;;;;;;;9.33;65.99;101437.84;7358129;19;20010;-63
2022/03/16 09:11:28;;;;;;;0.00;0.00;;;;;;;9.37;66.13;101449.97;7366746;19;20343;-63
2022/03/16 09:13:53;;;;;;;0.00;0.00;;;;;;;9.41;65.93;101446.47;7356483;19;20009;-63
2022/03/16 09:16:19;;;;;;;0.00;0.00;;;;;;;9.44;65.86;101456.88;7347785;19;20007;-63
2022/03/16 09:18:47;;;;;;;0.00;0.00;;;;;;;9.48;65.23;101456.00;7369217;19;20852;-64
2022/03/16 09:21:12;;;;;;;0.00;0.00;;;;;;;9.52;65.25;101455.06;7358160;19;20022;-63
2022/03/16 09:23:38;;;;;;;0.00;0.00;;;;;;;9.56;65.14;101456.81;7361273;19;20722;-63
2022/03/16 09:26:05;;;;;;;0.00;0.00;;;;;;;9.59;64.90;101451.56;7363786;19;20018;-63
2022/03/16 09:28:31;;;;;;;0.10;0.10;;;;;;;9.63;65.24;101449.81;7359272;19;20794;-64
2022/03/16 09:30:57;;;;;;;0.00;0.00;;;;;;;9.67;65.36;101448.91;7360445;19;20018;-63
2022/03/16 09:33:23;;;;;;;0.00;0.00;;;;;;;9.65;64.71;101440.22;7354887;19;20010;-63
2022/03/16 09:35:51;;;;;;;0.10;0.10;;;;;;;9.78;64.58;101461.84;7354164;19;20078;-63
2022/03/16 09:38:17;;;;;;;0.00;0.00;;;;;;;9.83;64.54;101460.09;7354470;19;20027;-63
2022/03/16 09:40:43;;;;;;;0.10;0.10;;;;;;;9.90;64.77;101464.41;7353603;19;20022;-63
2022/03/16 09:43:10;;;;;;;0.00;0.00;;;;;;;10.01;64.20;101464.31;7358502;19;20014;-63
2022/03/16 09:45:47;;;;;;;0.00;0.00;;;;;;;9.98;64.20;101444.31;7359608;19;20038;-63
2022/03/16 09:48:13;;;;;;;0.08;0.08;;;;;;;10.13;64.41;101465.06;7357927;19;20413;-63
2022/03/16 09:50:42;;;;;;;0.00;0.00;;;;;;;10.14;63.98;101458.97;7360231;19;20011;-63
2022/03/16 09:53:11;;;;;;;0.00;0.00;;;;;;;10.30;64.18;101471.94;7357139;19;20026;-63
2022/03/16 09:55:37;;;;;;;0.10;0.10;;;;;;;10.40;64.66;101470.97;7355270;19;20006;-63
2022/03/16 09:58:04;;;;;;;0.00;0.00;;;;;;;10.63;64.13;101478.53;7357436;19;20099;-63
2022/03/16 10:00:30;;;;;;;0.00;0.00;;;;;;;10.86;63.85;101470.47;7350289;19;20022;-66
2022/03/16 10:03:02;;;;;;;0.00;0.00;;;;;;;11.18;63.66;101472.69;7360394;19;20375;-64
2022/03/16 10:05:28;;;;;;;0.00;0.00;;;;;;;11.47;62.35;101482.75;7355569;19;20022;-63
2022/03/16 10:07:54;;;;;;;0.10;0.10;;;;;;;11.67;61.77;101480.72;7355938;19;20533;-64
2022/03/16 10:13:21;;;;;;;;;;;;;;;12.04;64.26;101485.41;7264789;19;2004581;-65
2022/03/16 10:15:48;;;;;;;0.00;0.00;;;;;;;12.04;60.57;101485.41;7361557;19;20422;-64
2022/03/16 10:18:20;;;;;;;0.00;0.00;;;;;;;12.12;60.34;101488.78;7360065;19;21409;-65
2022/03/16 10:20:45;;;;;;;0.00;0.00;;;;;;;12.14;59.89;101497.47;7359286;19;20733;-64
2022/03/16 10:23:14;;;;;;;0.00;0.00;;;;;;;12.23;60.30;101500.84;7356563;19;20041;-66
2022/03/16 10:25:41;;;;;;;0.00;0.00;;;;;;;12.32;59.42;101500.69;7357976;19;20007;-63
2022/03/16 10:28:20;;;;;;;0.10;0.10;;;;;;;12.48;60.27;101496.91;7315996;19;20034;-62
2022/03/16 10:30:58;;;;;;;0.00;0.00;;;;;;;12.60;59.83;101509.78;1169760;19;10001427;-64
2022/03/16 10:33:25;;;;;;;0.10;0.10;;;;;;;12.70;59.20;101515.72;7357613;19;20028;-64
2022/03/16 10:36:05;;;;;;;0.00;0.00;;;;;;;12.90;60.06;101510.97;7357532;19;20026;-63
2022/03/16 10:38:42;;;;;;;0.00;0.00;;;;;;;12.92;58.79;101482.06;7360362;19;20062;-66
2022/03/16 10:41:13;;;;;;;0.05;0.05;;;;;;;13.19;58.09;101507.75;7353198;19;20014;-62
2022/03/16 10:46:38;;;;;;;0.00;0.00;;;;;;;13.63;57.27;101498.06;7352801;19;20401;-64
2022/03/16 10:49:09;;;;;;;0.00;0.00;;;;;;;14.02;57.66;101498.91;7360305;19;20006;-63
2022/03/16 10:51:35;;;;;;;0.00;0.00;;;;;;;14.30;56.48;101497.41;7356590;19;20034;-64
2022/03/16 10:54:02;;;;;;;0.08;0.08;;;;;;;14.60;55.50;101498.38;7356614;19;20025;-62
2022/03/16 10:56:28;;;;;;;0.05;0.05;;;;;;;14.85;56.10;101504.72;7366498;19;20088;-64
2022/03/16 10:58:54;;;;;;;0.00;0.00;;;;;;;15.08;53.62;101506.69;7368201;19;20015;-64
2022/03/16 11:01:22;;;;;;;0.10;0.10;;;;;;;15.18;53.60;101486.25;7359521;19;20565;-65
2022/03/16 11:03:49;;;;;;;0.00;0.00;;;;;;;15.45;53.15;101495.94;7348923;19;20014;-65
2022/03/16 11:06:18;;;;;;;0.10;0.10;;;;;;;15.73;53.56;101496.00;7359174;19;20069;-66
2022/03/16 11:08:44;;;;;;;0.10;0.10;;;;;;;16.07;52.53;101506.31;7347853;19;20022;-65
2022/03/16 11:13:56;;;;;;;0.10;0.10;;;;;;;16.88;49.79;101510.63;7356597;19;20031;-65
2022/03/16 11:16:24;;;;;;;0.10;0.10;;;;;;;17.26;49.92;101510.97;7352625;19;20462;-65
2022/03/16 11:18:51;;;;;;;0.00;0.00;;;;;;;17.47;49.05;101498.72;7365049;19;20866;-66
2022/03/16 11:21:25;;;;;;;0.03;0.03;;;;;;;17.59;49.36;101488.56;7364676;19;20069;-65
2022/03/16 11:27:13;;;;;;;0.10;0.10;;;;;;;18.01;50.16;101505.44;7354598;19;20013;-65
2022/03/16 11:29:38;;;;;;;0.00;0.00;;;;;;;18.04;46.95;101507.94;7258889;19;2004430;-66
2022/03/16 11:32:13;;;;;;;0.08;0.08;;;;;;;18.24;48.33;101493.88;7364964;19;19999;-66
2022/03/16 11:34:39;;;;;;;0.10;0.10;;;;;;;18.39;46.38;101509.97;7364278;19;20014;-66
2022/03/16 11:37:11;;;;;;;0.10;0.10;;;;;;;18.63;45.51;101507.19;7360859;19;20010;-66
2022/03/16 11:39:46;;;;;;;0.10;0.10;;;;;;;19.02;48.86;101515.22;7363674;19;20006;-67